createdAt,value
2023-01-10T00:00:04.426Z,8.10
2023-01-10T00:02:30.907Z,8.10
2023-01-10T00:04:57.431Z,8.10
2023-01-10T00:07:23.923Z,8.09
2023-01-10T00:09:50.348Z,8.11
2023-01-10T00:12:35.469Z,8.12
2023-01-10T00:15:01.844Z,8.14
2023-01-10T00:17:28.277Z,8.14
2023-01-10T00:19:54.799Z,8.11
2023-01-10T00:22:24.895Z,8.10
2023-01-10T00:24:51.932Z,8.11
2023-01-10T00:27:25.051Z,8.10
2023-01-10T00:29:52.415Z,8.08
2023-01-10T00:32:22.475Z,8.09
2023-01-10T00:34:48.834Z,8.07
2023-01-10T00:37:15.413Z,8.07
2023-01-10T00:39:41.895Z,8.08
2023-01-10T00:42:28.625Z,8.10
2023-01-10T00:44:55.036Z,8.09
2023-01-10T00:47:21.497Z,8.08
2023-01-10T00:49:49.119Z,8.07
2023-01-10T00:52:15.508Z,8.06
2023-01-10T00:54:41.900Z,8.06
2023-01-10T00:57:08.359Z,8.04
2023-01-10T00:59:34.790Z,8.05
2023-01-10T01:02:01.300Z,8.04
2023-01-10T01:04:27.918Z,8.04
2023-01-10T01:06:54.332Z,8.05
2023-01-10T01:09:20.764Z,8.06
2023-01-10T01:11:47.325Z,8.05
2023-01-10T01:14:13.795Z,8.05
2023-01-10T01:16:40.284Z,8.04
2023-01-10T01:19:06.678Z,8.05
2023-01-10T01:21:33.733Z,8.04
2023-01-10T01:24:00.121Z,8.01
2023-01-10T01:26:26.936Z,8.01
2023-01-10T01:28:53.405Z,8.03
2023-01-10T01:31:19.937Z,8.04
2023-01-10T01:33:46.892Z,8.02
2023-01-10T01:36:13.658Z,8.02
2023-01-10T01:38:41.080Z,8.04
2023-01-10T01:41:27.116Z,8.02
2023-01-10T01:44:04.180Z,8.00
2023-01-10T01:46:34.043Z,7.98
2023-01-10T01:49:02.167Z,8.00
2023-01-10T01:51:30.996Z,8.03
2023-01-10T01:54:02.357Z,8.04
2023-01-10T01:56:37.081Z,8.05
2023-01-10T01:59:20.037Z,8.05
2023-01-10T02:01:50.795Z,8.05
2023-01-10T02:04:21.424Z,8.03
2023-01-10T02:06:50.466Z,8.04
2023-01-10T02:09:50.235Z,8.07
2023-01-10T02:12:17.016Z,8.08
2023-01-10T02:14:45.603Z,8.07
2023-01-10T02:17:12.342Z,8.08
2023-01-10T02:19:44.711Z,8.11
2023-01-10T02:22:55.322Z,8.13
2023-01-10T02:25:48.527Z,8.13
2023-01-10T02:28:46.893Z,8.13
2023-01-10T02:31:37.530Z,8.15
2023-01-10T02:34:40.721Z,8.15
2023-01-10T02:37:19.654Z,8.15
2023-01-10T02:40:08.268Z,8.18
2023-01-10T02:42:46.941Z,8.18
2023-01-10T02:45:26.103Z,8.22
2023-01-10T02:47:52.453Z,8.23
2023-01-10T02:50:45.014Z,8.25
2023-01-10T02:53:11.345Z,8.26
2023-01-10T02:55:58.717Z,8.24
2023-01-10T02:58:40.265Z,8.24
2023-01-10T03:01:11.463Z,8.26
2023-01-10T03:03:46.989Z,8.29
2023-01-10T03:06:30.367Z,8.34
2023-01-10T03:09:06.553Z,8.39
2023-01-10T03:11:40.640Z,8.36
2023-01-10T03:14:21.939Z,8.33
2023-01-10T03:16:57.868Z,8.33
2023-01-10T03:19:30.270Z,8.37
2023-01-10T03:21:59.481Z,8.39
2023-01-10T03:24:32.539Z,8.40
2023-01-10T03:27:18.782Z,8.37
2023-01-10T03:30:00.290Z,8.41
2023-01-10T03:32:30.040Z,8.42
2023-01-10T03:34:58.483Z,8.44
2023-01-10T03:37:43.303Z,8.44
2023-01-10T03:40:52.291Z,8.45
2023-01-10T03:43:56.873Z,8.48
2023-01-10T03:46:46.459Z,8.48
2023-01-10T03:49:18.040Z,8.50
2023-01-10T03:51:45.053Z,8.52
2023-01-10T03:54:12.118Z,8.53
2023-01-10T03:56:50.074Z,8.56
2023-01-10T03:59:23.550Z,8.57
2023-01-10T04:01:50.429Z,8.54
2023-01-10T04:04:17.100Z,8.57
2023-01-10T04:06:44.440Z,8.54
2023-01-10T04:09:11.056Z,8.53
2023-01-10T04:11:37.752Z,8.52
2023-01-10T04:14:04.358Z,8.53
2023-01-10T04:16:31.024Z,8.53
2023-01-10T04:18:57.431Z,8.52
2023-01-10T04:21:26.405Z,8.49
2023-01-10T04:23:53.395Z,8.43
2023-01-10T04:26:19.887Z,8.40
2023-01-10T04:28:46.294Z,8.35
2023-01-10T04:31:12.774Z,8.32
2023-01-10T04:33:40.824Z,8.31
2023-01-10T04:36:07.659Z,8.30
2023-01-10T04:38:34.377Z,8.29
2023-01-10T04:41:00.910Z,8.21
2023-01-10T04:43:27.431Z,8.29
2023-01-10T04:45:53.942Z,8.30
2023-01-10T04:48:20.551Z,8.31
2023-01-10T04:50:51.087Z,8.33
2023-01-10T04:53:18.132Z,8.32
2023-01-10T04:55:44.712Z,8.33
2023-01-10T04:58:11.226Z,8.35
2023-01-10T05:00:38.082Z,8.32
2023-01-10T05:03:04.752Z,8.27
2023-01-10T05:05:32.401Z,8.24
2023-01-10T05:07:58.958Z,8.24
2023-01-10T05:10:25.568Z,8.21
2023-01-10T05:12:52.004Z,8.21
2023-01-10T05:15:20.921Z,8.17
2023-01-10T05:17:47.312Z,8.11
2023-01-10T05:20:13.681Z,8.08
2023-01-10T05:22:40.066Z,8.05
2023-01-10T05:25:06.883Z,8.01
2023-01-10T05:27:33.377Z,7.98
2023-01-10T05:29:59.811Z,7.97
2023-01-10T05:32:29.601Z,7.92
2023-01-10T05:34:56.712Z,7.86
2023-01-10T05:37:23.246Z,7.84
2023-01-10T05:39:49.625Z,7.85
2023-01-10T05:42:17.234Z,7.82
2023-01-10T05:44:43.642Z,7.84
2023-01-10T05:47:10.014Z,7.83
2023-01-10T05:49:36.359Z,7.83
2023-01-10T05:52:02.798Z,7.84
2023-01-10T05:54:29.763Z,7.85
2023-01-10T05:56:56.849Z,7.84
2023-01-10T05:59:30.366Z,7.78
2023-01-10T06:01:56.924Z,7.82
2023-01-10T06:04:23.511Z,7.83
2023-01-10T06:06:49.954Z,7.82
2023-01-10T06:09:16.311Z,7.83
2023-01-10T06:11:42.748Z,7.82
2023-01-10T06:14:09.328Z,7.83
2023-01-10T06:16:35.921Z,7.87
2023-01-10T06:19:02.410Z,7.89
2023-01-10T06:21:28.875Z,7.90
2023-01-10T06:23:55.948Z,7.88
2023-01-10T06:26:22.370Z,7.87
2023-01-10T06:28:48.801Z,7.86
2023-01-10T06:31:15.411Z,7.88
2023-01-10T06:33:43.818Z,7.93
2023-01-10T06:36:10.762Z,7.93
2023-01-10T06:38:37.370Z,7.93
2023-01-10T06:41:12.868Z,7.92
2023-01-10T06:43:47.135Z,7.91
2023-01-10T06:46:19.361Z,7.89
2023-01-10T06:48:46.426Z,7.88
2023-01-10T06:51:14.399Z,7.87
2023-01-10T06:53:41.479Z,7.82
2023-01-10T06:56:09.671Z,7.82
2023-01-10T06:58:38.728Z,7.78
2023-01-10T07:01:13.599Z,7.77
2023-01-10T07:03:40.908Z,7.75
2023-01-10T07:06:11.082Z,7.74
2023-01-10T07:08:39.623Z,7.72
2023-01-10T07:11:06.855Z,7.72
2023-01-10T07:13:34.907Z,7.68
2023-01-10T07:16:08.951Z,7.66
2023-01-10T07:18:36.413Z,7.64
2023-01-10T07:21:02.915Z,7.63
2023-01-10T07:23:32.294Z,7.63
2023-01-10T07:26:04.074Z,7.61
2023-01-10T07:28:31.048Z,7.63
2023-01-10T07:31:00.223Z,7.61
2023-01-10T07:33:27.078Z,7.62
2023-01-10T07:35:53.562Z,7.64
2023-01-10T07:38:20.439Z,7.63
2023-01-10T07:40:46.839Z,7.66
2023-01-10T07:43:13.197Z,7.66
2023-01-10T07:45:39.604Z,7.69
2023-01-10T07:48:06.652Z,7.71
2023-01-10T07:50:37.197Z,7.68
2023-01-10T07:53:06.497Z,7.67
2023-01-10T07:55:37.874Z,7.67
2023-01-10T07:58:08.145Z,7.68
2023-01-10T08:00:35.517Z,7.69
2023-01-10T08:03:05.292Z,7.66
2023-01-10T08:05:32.114Z,7.62
2023-01-10T08:08:04.596Z,7.62
2023-01-10T08:10:34.610Z,7.59
2023-01-10T08:13:13.134Z,7.59
2023-01-10T08:15:45.452Z,7.56
2023-01-10T08:18:12.938Z,7.57
2023-01-10T08:20:40.521Z,7.53
2023-01-10T08:23:07.075Z,7.51
2023-01-10T08:25:33.615Z,7.52
2023-01-10T08:27:59.984Z,7.49
2023-01-10T08:30:26.325Z,7.48
2023-01-10T08:32:52.719Z,7.48
2023-01-10T08:35:22.195Z,7.48
2023-01-10T08:37:48.669Z,7.43
2023-01-10T08:40:15.450Z,7.42
2023-01-10T08:42:41.943Z,7.41
2023-01-10T08:45:09.097Z,7.37
2023-01-10T08:47:35.581Z,7.32
2023-01-10T08:50:02.789Z,7.29
2023-01-10T08:52:29.369Z,7.25
2023-01-10T08:54:55.835Z,7.21
2023-01-10T08:57:22.407Z,7.21
2023-01-10T08:59:48.780Z,7.20
2023-01-10T09:02:15.397Z,7.18
2023-01-10T09:04:44.363Z,7.19
2023-01-10T09:07:10.802Z,7.17
2023-01-10T09:09:37.373Z,7.17
2023-01-10T09:12:24.187Z,7.20
2023-01-10T09:14:50.562Z,7.21
2023-01-10T09:17:17.128Z,7.17
2023-01-10T09:19:43.518Z,7.18
2023-01-10T09:22:09.934Z,7.17
2023-01-10T09:24:37.600Z,7.19
2023-01-10T09:27:04.127Z,7.19
2023-01-10T09:29:30.811Z,7.20
2023-01-10T09:31:57.279Z,7.25
2023-01-10T09:34:24.899Z,7.28
2023-01-10T09:36:51.320Z,7.31
2023-01-10T09:39:17.869Z,7.34
2023-01-10T09:42:03.175Z,7.32
2023-01-10T09:44:56.715Z,7.35
2023-01-10T09:47:54.077Z,7.37
2023-01-10T09:50:25.753Z,7.42
2023-01-10T09:53:27.081Z,7.42
2023-01-10T09:55:56.660Z,7.37
2023-01-10T09:58:27.628Z,7.39
2023-01-10T10:00:58.390Z,7.42
2023-01-10T10:03:32.840Z,7.41
2023-01-10T10:06:11.217Z,7.42
2023-01-10T10:08:44.017Z,7.43
2023-01-10T10:11:25.391Z,7.42
2023-01-10T10:14:25.410Z,7.41
2023-01-10T10:17:29.250Z,7.45
2023-01-10T10:20:40.953Z,7.45
2023-01-10T10:23:48.742Z,7.42
2023-01-10T10:26:34.295Z,7.44
2023-01-10T10:29:25.483Z,7.41
2023-01-10T10:32:17.916Z,7.43
2023-01-10T10:34:51.442Z,7.37
2023-01-10T10:37:25.778Z,7.31
2023-01-10T10:40:03.281Z,7.32
2023-01-10T10:42:34.809Z,7.29
2023-01-10T10:45:04.947Z,7.27
2023-01-10T10:47:34.580Z,7.24
2023-01-10T10:50:12.997Z,7.25
2023-01-10T10:52:40.077Z,7.26
2023-01-10T10:55:12.891Z,7.23
2023-01-10T10:57:51.580Z,7.20
2023-01-10T11:00:25.481Z,7.22
2023-01-10T11:02:58.819Z,7.20
2023-01-10T11:05:40.607Z,7.17
2023-01-10T11:08:11.600Z,7.18
2023-01-10T11:10:38.552Z,7.22
2023-01-10T11:13:21.881Z,7.25
2023-01-10T11:15:50.033Z,7.22
2023-01-10T11:18:20.672Z,7.22
2023-01-10T11:21:00.290Z,7.21
2023-01-10T11:23:40.669Z,7.19
2023-01-10T11:26:10.777Z,7.24
2023-01-10T11:28:37.379Z,7.20
2023-01-10T11:31:04.337Z,7.20
2023-01-10T11:33:41.922Z,7.22
2023-01-10T11:36:13.028Z,7.24
2023-01-10T11:38:40.169Z,7.29
2023-01-10T11:41:24.830Z,7.27
2023-01-10T11:43:51.408Z,7.26
2023-01-10T11:46:23.187Z,7.26
2023-01-10T11:49:14.749Z,7.26
2023-01-10T11:51:47.814Z,7.31
2023-01-10T11:54:26.269Z,7.30
2023-01-10T11:57:07.232Z,7.29
2023-01-10T11:59:34.116Z,7.29
2023-01-10T12:02:24.265Z,7.34
2023-01-10T12:04:53.554Z,7.40
2023-01-10T12:07:20.157Z,7.45
2023-01-10T12:10:01.377Z,7.52
2023-01-10T12:12:34.356Z,7.52
2023-01-10T12:15:25.572Z,7.56
2023-01-10T12:17:52.754Z,7.59
2023-01-10T12:20:19.619Z,7.58
2023-01-10T12:22:49.941Z,7.60
2023-01-10T12:25:40.992Z,7.62
2023-01-10T12:28:29.960Z,7.63
2023-01-10T12:31:01.261Z,7.62
2023-01-10T12:33:38.632Z,7.68
2023-01-10T12:36:33.798Z,7.62
2023-01-10T12:39:20.704Z,7.66
2023-01-10T12:42:16.558Z,7.69
2023-01-10T12:44:45.765Z,7.67
2023-01-10T12:47:33.852Z,7.69
2023-01-10T12:50:13.934Z,7.68
2023-01-10T12:53:00.709Z,7.70
2023-01-10T12:55:40.793Z,7.68
2023-01-10T12:58:21.898Z,7.64
2023-01-10T13:00:59.679Z,7.67
2023-01-10T13:03:33.308Z,7.66
2023-01-10T13:06:01.057Z,7.68
2023-01-10T13:08:32.036Z,7.70
2023-01-10T13:11:00.149Z,7.71
2023-01-10T13:13:35.769Z,7.72
2023-01-10T13:16:26.779Z,7.71
2023-01-10T13:18:59.890Z,7.74
2023-01-10T13:21:26.537Z,7.76
2023-01-10T13:23:58.309Z,7.78
2023-01-10T13:26:24.879Z,7.79
2023-01-10T13:28:58.307Z,7.81
2023-01-10T13:31:34.288Z,7.87
2023-01-10T13:34:25.235Z,7.92
2023-01-10T13:36:56.742Z,7.96
2023-01-10T13:39:49.091Z,7.99
2023-01-10T13:42:53.059Z,7.98
2023-01-10T13:45:29.822Z,7.91
2023-01-10T13:47:56.871Z,7.97
2023-01-10T13:50:28.283Z,8.00
2023-01-10T13:53:17.617Z,8.02
2023-01-10T13:55:46.386Z,8.03
2023-01-10T13:58:15.895Z,8.05
2023-01-10T14:01:05.822Z,8.07
2023-01-10T14:03:40.258Z,8.08
2023-01-10T14:06:13.983Z,8.10
2023-01-10T14:08:41.299Z,8.06
2023-01-10T14:11:10.600Z,8.00
2023-01-10T14:13:37.644Z,7.92
2023-01-10T14:16:06.975Z,7.91
2023-01-10T14:18:39.085Z,7.85
2023-01-10T14:21:08.511Z,7.81
2023-01-10T14:23:45.079Z,7.81
2023-01-10T14:26:22.816Z,7.76
2023-01-10T14:28:50.487Z,7.68
2023-01-10T14:31:23.252Z,7.66
2023-01-10T14:33:50.177Z,7.64
2023-01-10T14:36:27.412Z,7.60
2023-01-10T14:38:58.421Z,7.56
2023-01-10T14:41:39.866Z,7.56
2023-01-10T14:44:12.097Z,7.52
2023-01-10T14:46:49.005Z,7.49
2023-01-10T14:49:28.524Z,7.46
2023-01-10T14:52:10.886Z,7.40
2023-01-10T14:54:37.157Z,7.38
2023-01-10T14:57:03.699Z,7.31
2023-01-10T14:59:34.271Z,7.30
2023-01-10T15:02:04.474Z,7.29
2023-01-10T15:04:33.611Z,7.25
2023-01-10T15:07:12.130Z,7.20
2023-01-10T15:09:39.301Z,7.18
2023-01-10T15:12:09.436Z,7.17
2023-01-10T15:14:37.648Z,7.19
2023-01-10T15:17:06.684Z,7.12
2023-01-10T15:19:36.014Z,7.15
2023-01-10T15:22:04.077Z,7.15
2023-01-10T15:24:35.916Z,7.12
2023-01-10T15:27:11.860Z,7.15
2023-01-10T15:29:46.914Z,7.10
2023-01-10T15:32:36.953Z,7.09
2023-01-10T15:35:03.909Z,7.10
2023-01-10T15:37:38.161Z,7.04
2023-01-10T15:40:08.541Z,7.05
2023-01-10T15:42:35.400Z,7.02
2023-01-10T15:45:32.088Z,7.03
2023-01-10T15:48:03.685Z,7.02
2023-01-10T15:50:40.709Z,7.03
2023-01-10T15:53:10.358Z,6.99
2023-01-10T15:55:53.449Z,7.00
2023-01-10T15:58:28.850Z,7.00
2023-01-10T16:00:56.553Z,7.01
2023-01-10T16:03:31.528Z,7.02
2023-01-10T16:05:59.835Z,7.03
2023-01-10T16:08:35.315Z,7.01
2023-01-10T16:11:06.335Z,6.99
2023-01-10T16:13:34.100Z,7.00
2023-01-10T16:16:05.539Z,7.01
2023-01-10T16:18:32.067Z,7.00
2023-01-10T16:21:02.761Z,7.01
2023-01-10T16:23:34.243Z,7.00
2023-01-10T16:26:03.871Z,6.95
2023-01-10T16:28:35.802Z,6.93
2023-01-10T16:31:06.899Z,6.91
2023-01-10T16:33:33.854Z,6.93
2023-01-10T16:36:00.735Z,6.91
2023-01-10T16:38:28.799Z,6.90
2023-01-10T16:41:23.430Z,6.96
2023-01-10T16:43:51.299Z,6.92
2023-01-10T16:46:18.204Z,6.92
2023-01-10T16:48:50.607Z,6.92
2023-01-10T16:51:20.034Z,6.97
2023-01-10T16:53:47.249Z,6.97
2023-01-10T16:56:16.215Z,7.00
2023-01-10T16:58:42.695Z,7.02
2023-01-10T17:01:14.636Z,7.05
2023-01-10T17:03:41.205Z,7.06
2023-01-10T17:06:09.181Z,6.96
2023-01-10T17:08:35.752Z,6.88
2023-01-10T17:11:06.616Z,6.83
2023-01-10T17:13:37.606Z,6.92
2023-01-10T17:16:05.310Z,6.95
2023-01-10T17:18:31.720Z,6.92
2023-01-10T17:20:58.645Z,6.90
2023-01-10T17:23:26.251Z,6.90
2023-01-10T17:26:19.677Z,6.95
2023-01-10T17:28:48.401Z,6.98
2023-01-10T17:31:16.482Z,7.00
2023-01-10T17:33:43.296Z,7.04
2023-01-10T17:36:10.474Z,7.06
2023-01-10T17:38:37.827Z,7.05
2023-01-10T17:41:04.341Z,7.07
2023-01-10T17:43:31.463Z,7.08
2023-01-10T17:46:01.570Z,7.10
2023-01-10T17:48:28.004Z,7.10
2023-01-10T17:50:59.510Z,7.14
2023-01-10T17:53:26.706Z,7.17
2023-01-10T17:55:53.676Z,7.22
2023-01-10T17:58:21.332Z,7.22
2023-01-10T18:00:48.829Z,7.25
2023-01-10T18:03:15.502Z,7.26
2023-01-10T18:05:56.287Z,7.31
2023-01-10T18:08:23.586Z,7.34
2023-01-10T18:10:50.835Z,7.37
2023-01-10T18:13:20.575Z,7.39
2023-01-10T18:15:49.070Z,7.42
2023-01-10T18:18:16.731Z,7.42
2023-01-10T18:20:44.585Z,7.43
2023-01-10T18:23:24.648Z,7.42
2023-01-10T18:26:01.647Z,7.46
2023-01-10T18:28:42.319Z,7.49
2023-01-10T18:31:15.871Z,7.48
2023-01-10T18:33:42.462Z,7.58
2023-01-10T18:36:14.508Z,7.61
2023-01-10T18:38:42.950Z,7.62
2023-01-10T18:41:09.340Z,7.65
2023-01-10T18:43:36.058Z,7.69
2023-01-10T18:46:09.605Z,7.74
2023-01-10T18:48:36.087Z,7.77
2023-01-10T18:51:03.873Z,7.80
2023-01-10T18:53:31.377Z,7.84
2023-01-10T18:56:00.330Z,7.87
2023-01-10T18:58:30.851Z,7.91
2023-01-10T19:00:57.579Z,7.97
2023-01-10T19:03:24.230Z,8.00
2023-01-10T19:05:50.811Z,8.04
2023-01-10T19:08:17.341Z,8.10
2023-01-10T19:11:11.339Z,8.15
2023-01-10T19:13:31.613Z,8.16
2023-01-10T19:16:12.937Z,8.18
2023-01-10T19:18:42.420Z,8.20
2023-01-10T19:21:15.051Z,8.21
2023-01-10T19:23:43.717Z,8.24
2023-01-10T19:26:10.730Z,8.26
2023-01-10T19:28:37.174Z,8.27
2023-01-10T19:31:05.476Z,8.29
2023-01-10T19:33:34.515Z,8.32
2023-01-10T19:36:06.080Z,8.38
2023-01-10T19:38:32.482Z,8.42
2023-01-10T19:40:59.197Z,8.45
2023-01-10T19:43:25.884Z,8.45
2023-01-10T19:45:53.409Z,8.49
2023-01-10T19:48:19.799Z,8.54
2023-01-10T19:50:46.548Z,8.58
2023-01-10T19:53:13.562Z,8.62
2023-01-10T19:55:40.130Z,8.64
2023-01-10T19:58:09.716Z,8.65
2023-01-10T20:00:36.212Z,8.64
2023-01-10T20:03:04.896Z,8.62
2023-01-10T20:05:34.548Z,8.62
2023-01-10T20:08:05.137Z,8.64
2023-01-10T20:10:32.556Z,8.66
2023-01-10T20:12:58.955Z,8.70
2023-01-10T20:15:25.325Z,8.74
2023-01-10T20:17:51.728Z,8.75
2023-01-10T20:20:20.547Z,8.76
2023-01-10T20:22:47.762Z,8.78
2023-01-10T20:25:14.247Z,8.77
2023-01-10T20:27:40.920Z,8.80
2023-01-10T20:30:08.784Z,8.80
2023-01-10T20:32:35.165Z,8.84
2023-01-10T20:35:01.589Z,8.87
2023-01-10T20:37:27.984Z,8.89
2023-01-10T20:39:55.142Z,8.89
2023-01-10T20:42:22.359Z,8.95
2023-01-10T20:44:48.730Z,9.00
2023-01-10T20:47:16.118Z,9.03
2023-01-10T20:49:42.430Z,9.05
2023-01-10T20:52:09.812Z,9.06
2023-01-10T20:54:38.291Z,9.08
2023-01-10T20:57:07.033Z,9.10
2023-01-10T20:59:33.688Z,9.10
2023-01-10T21:02:01.152Z,9.14
2023-01-10T21:04:27.885Z,9.15
2023-01-10T21:06:58.295Z,9.17
2023-01-10T21:09:24.670Z,9.18
2023-01-10T21:12:01.992Z,9.20
2023-01-10T21:14:33.672Z,9.20
2023-01-10T21:17:00.077Z,9.21
2023-01-10T21:19:26.495Z,9.23
2023-01-10T21:21:52.914Z,9.26
2023-01-10T21:24:22.770Z,9.27
2023-01-10T21:26:49.331Z,9.23
2023-01-10T21:29:18.452Z,9.30
2023-01-10T21:31:44.969Z,9.32
2023-01-10T21:34:11.543Z,9.33
2023-01-10T21:36:38.180Z,9.36
2023-01-10T21:39:04.730Z,9.40
2023-01-10T21:41:49.883Z,9.40
2023-01-10T21:44:16.340Z,9.44
2023-01-10T21:46:44.568Z,9.46
2023-01-10T21:49:11.139Z,9.48
2023-01-10T21:51:37.560Z,9.48
2023-01-10T21:54:04.191Z,9.51
2023-01-10T21:56:30.706Z,9.51
2023-01-10T21:58:57.208Z,9.54
2023-01-10T22:01:23.853Z,9.54
2023-01-10T22:03:50.403Z,9.55
2023-01-10T22:06:16.955Z,9.58
2023-01-10T22:08:43.459Z,9.59
2023-01-10T22:11:11.065Z,9.59
2023-01-10T22:13:38.402Z,9.62
2023-01-10T22:16:05.206Z,9.63
2023-01-10T22:18:31.916Z,9.69
2023-01-10T22:20:59.067Z,9.69
2023-01-10T22:23:28.491Z,9.74
2023-01-10T22:25:59.679Z,9.76
2023-01-10T22:28:26.142Z,9.79
2023-01-10T22:30:54.493Z,9.81
2023-01-10T22:33:20.927Z,9.84
2023-01-10T22:35:47.349Z,9.87
2023-01-10T22:38:14.137Z,9.88
2023-01-10T22:40:40.597Z,9.92
2023-01-10T22:43:06.955Z,9.93
2023-01-10T22:45:33.498Z,9.97
2023-01-10T22:47:59.951Z,10.00
2023-01-10T22:50:26.854Z,10.02
2023-01-10T22:52:53.290Z,10.02
2023-01-10T22:55:19.754Z,10.06
2023-01-10T22:57:47.728Z,10.07
2023-01-10T23:00:14.690Z,10.11
2023-01-10T23:02:41.117Z,10.12
2023-01-10T23:05:07.857Z,10.14
2023-01-10T23:07:34.222Z,10.20
2023-01-10T23:10:00.642Z,10.23
2023-01-10T23:12:27.011Z,10.26
2023-01-10T23:14:53.435Z,10.27
2023-01-10T23:17:19.818Z,10.30
2023-01-10T23:19:46.248Z,10.32
2023-01-10T23:22:12.636Z,10.36
2023-01-10T23:24:39.012Z,10.40
2023-01-10T23:27:05.397Z,10.43
2023-01-10T23:29:31.901Z,10.45
2023-01-10T23:31:58.381Z,10.48
2023-01-10T23:34:24.885Z,10.50
2023-01-10T23:36:51.488Z,10.53
2023-01-10T23:39:19.100Z,10.47
2023-01-10T23:41:45.577Z,10.57
2023-01-10T23:44:11.982Z,10.60
2023-01-10T23:46:38.357Z,10.62
2023-01-10T23:49:04.871Z,10.65
2023-01-10T23:51:31.273Z,10.68
2023-01-10T23:53:57.858Z,10.69
2023-01-10T23:56:24.267Z,10.70
2023-01-10T23:58:52.600Z,10.71
